Time;durP1;ratioP1;P1;durP2;ratioP2;P2;SDS_P1;SDS_P2;PMS_P1;PMS_P2;Temp;Humidity;BMP_temperature;BMP_pressure;BME280_temperature;BME280_humidity;BME280_pressure;Samples;Min_cycle;Max_cycle;Signal;HPM_P1;HPM_P2
2023/12/07 00:00:44;;;;;;;0.00;0.00;;;;;;;5.54;100.00;100007.91;4804227;29;20378;-81
2023/12/07 00:03:20;;;;;;;;;;;;;;;;;;;;;
2023/12/07 00:05:48;;;;;;;0.00;0.00;;;;;;;5.72;100.00;100032.16;4804606;29;20030;-80
2023/12/07 00:08:21;;;;;;;0.00;0.00;;;;;;;5.50;100.00;99998.63;4816338;29;20765;-80
2023/12/07 00:10:51;;;;;;;0.00;0.00;;;;;;;5.74;100.00;100027.28;4813640;29;20079;-79
2023/12/07 00:13:22;;;;;;;0.00;0.00;;;;;;;5.60;100.00;100001.53;4813140;29;20386;-79
2023/12/07 00:15:49;;;;;;;0.00;0.00;;;;;;;5.83;100.00;100035.84;4825682;29;20042;-80
2023/12/07 00:18:15;;;;;;;0.00;0.00;;;;;;;5.73;100.00;100017.50;4806614;29;20054;-78
2023/12/07 00:20:43;;;;;;;0.00;0.00;;;;;;;5.59;100.00;99994.44;4799926;29;21313;-80
2023/12/07 00:23:08;;;;;;;0.00;0.00;;;;;;;5.87;100.00;100033.47;4788691;29;20066;-79
2023/12/07 00:25:36;;;;;;;0.05;0.05;;;;;;;5.81;100.00;100027.16;4800304;29;20207;-82
2023/12/07 00:28:05;;;;;;;0.00;0.00;;;;;;;5.73;100.00;100011.25;4812203;29;20027;-80
2023/12/07 00:30:30;;;;;;;0.00;0.00;;;;;;;5.81;100.00;100023.59;4800843;29;20027;-82
2023/12/07 00:32:56;;;;;;;0.10;0.10;;;;;;;5.66;100.00;99995.13;4800964;29;20033;-82
2023/12/07 00:35:24;;;;;;;0.00;0.00;;;;;;;5.69;100.00;99975.63;4804213;29;20455;-82
2023/12/07 00:37:51;;;;;;;0.00;0.00;;;;;;;5.73;100.00;99971.38;4774479;29;20031;-82
2023/12/07 00:40:17;;;;;;;0.10;0.10;;;;;;;5.69;100.00;99962.06;4809505;29;20046;-81
2023/12/07 00:42:45;;;;;;;0.00;0.00;;;;;;;5.77;100.00;99975.25;4792738;29;20066;-79
2023/12/07 00:45:12;;;;;;;0.00;0.00;;;;;;;5.90;100.00;99995.81;4800663;29;20371;-80
2023/12/07 00:47:40;;;;;;;0.00;0.00;;;;;;;5.80;100.00;99981.22;4797134;29;20023;-81
2023/12/07 00:50:19;;;;;;;0.00;0.00;;;;;;;5.60;100.00;99958.13;4807382;29;20035;-79
2023/12/07 00:52:45;;;;;;;0.08;0.08;;;;;;;5.89;100.00;99977.06;4824459;29;20089;-78
2023/12/07 00:55:10;;;;;;;0.00;0.00;;;;;;;5.80;100.00;99959.53;4818584;29;20046;-81
2023/12/07 00:57:47;;;;;;;0.00;0.00;;;;;;;5.97;100.00;99973.97;4803657;29;20031;-81
2023/12/07 01:00:13;;;;;;;0.00;0.00;;;;;;;5.84;100.00;99941.69;4810584;29;20466;-81
2023/12/07 01:02:39;;;;;;;0.00;0.00;;;;;;;5.90;100.00;99951.59;4810801;29;20031;-81
2023/12/07 01:05:12;;;;;;;0.10;0.10;;;;;;;5.80;100.00;99929.69;4820746;29;20027;-79
2023/12/07 01:07:53;;;;;;;0.00;0.00;;;;;;;6.01;100.00;99969.69;4824718;29;20027;-80
2023/12/07 01:10:21;;;;;;;0.00;0.00;;;;;;;5.67;100.00;99914.56;4806681;29;20457;-79
2023/12/07 01:12:47;;;;;;;0.00;0.00;;;;;;;5.80;100.00;99937.81;4813849;29;20042;-76
2023/12/07 01:15:17;;;;;;;0.00;0.00;;;;;;;5.85;100.00;99946.88;4783882;29;20027;-77
2023/12/07 01:17:43;;;;;;;0.00;0.00;;;;;;;5.89;100.00;99944.50;4799024;29;20034;-77
2023/12/07 01:20:12;;;;;;;0.00;0.00;;;;;;;5.91;100.00;99959.47;4792753;29;20035;-76
2023/12/07 01:22:46;;;;;;;0.00;0.00;;;;;;;5.81;100.00;99931.31;4812124;29;20066;-77
2023/12/07 01:25:21;;;;;;;0.00;0.00;;;;;;;5.83;100.00;99934.63;4798253;29;20092;-78
2023/12/07 01:27:56;;;;;;;0.00;0.00;;;;;;;5.81;100.00;99932.16;4796285;29;20496;-76
2023/12/07 01:30:25;;;;;;;0.10;0.10;;;;;;;5.58;100.00;99892.44;4809284;29;20034;-76
2023/12/07 01:32:53;;;;;;;0.10;0.10;;;;;;;5.75;100.00;99917.69;4811511;29;20030;-78
2023/12/07 01:35:23;;;;;;;0.00;0.00;;;;;;;5.75;100.00;99914.97;4797884;29;20039;-78
2023/12/07 01:37:48;;;;;;;0.00;0.00;;;;;;;5.85;100.00;99921.63;4807308;29;20029;-78
2023/12/07 01:40:14;;;;;;;0.00;0.00;;;;;;;5.85;100.00;99925.16;4800841;29;20043;-79
2023/12/07 01:42:51;;;;;;;0.00;0.00;;;;;;;5.93;100.00;99932.09;4779735;29;20050;-78
2023/12/07 01:45:19;;;;;;;0.00;0.00;;;;;;;5.93;100.00;99923.94;4796621;29;20034;-77
2023/12/07 01:47:47;;;;;;;0.00;0.00;;;;;;;5.89;100.00;99920.88;4813777;29;20030;-80
2023/12/07 01:50:15;;;;;;;0.00;0.00;;;;;;;5.90;100.00;99910.88;4820886;29;20118;-79
2023/12/07 01:52:57;;;;;;;;;;;;;;;;;;;;;
2023/12/07 01:55:24;;;;;;;0.10;0.10;;;;;;;6.04;100.00;99914.09;4804702;29;20027;-78
2023/12/07 01:57:52;;;;;;;0.00;0.00;;;;;;;6.04;100.00;99916.81;4820877;29;20060;-79
2023/12/07 02:00:18;;;;;;;0.00;0.00;;;;;;;5.97;100.00;99899.84;4784528;29;20042;-78
2023/12/07 02:02:45;;;;;;;0.00;0.00;;;;;;;5.99;100.00;99895.84;4814704;29;20467;-78
2023/12/07 02:05:13;;;;;;;0.00;0.00;;;;;;;6.02;100.00;99899.94;4787082;29;20035;-79
2023/12/07 02:07:44;;;;;;;0.00;0.00;;;;;;;5.75;100.00;99860.72;4806674;29;20052;-78
2023/12/07 02:10:15;;;;;;;0.00;0.00;;;;;;;5.89;100.00;99882.09;4811372;29;20050;-77
2023/12/07 02:12:40;;;;;;;0.00;0.00;;;;;;;5.99;100.00;99893.13;4813154;29;20129;-78
2023/12/07 02:15:09;;;;;;;0.00;0.00;;;;;;;5.85;100.00;99873.59;4800327;29;20127;-77
2023/12/07 02:17:40;;;;;;;0.10;0.10;;;;;;;6.01;100.00;99893.69;4807291;29;20043;-75
2023/12/07 02:20:31;;;;;;;0.00;0.00;;;;;;;6.01;100.00;99909.16;4794431;29;20066;-76
2023/12/07 02:23:11;;;;;;;0.00;0.00;;;;;;;5.91;100.00;99886.19;4813256;29;20039;-77
2023/12/07 02:25:47;;;;;;;0.00;0.00;;;;;;;5.81;100.00;99877.91;4789994;29;20031;-75
2023/12/07 02:28:12;;;;;;;0.00;0.00;;;;;;;5.94;100.00;99893.00;4805313;29;20130;-77
2023/12/07 02:30:38;;;;;;;0.00;0.00;;;;;;;5.83;100.00;99869.50;4795135;29;20043;-76
2023/12/07 02:33:06;;;;;;;0.00;0.00;;;;;;;5.85;100.00;99875.50;4801069;29;20038;-76
2023/12/07 02:35:32;;;;;;;0.10;0.10;;;;;;;5.94;100.00;99890.28;4805122;29;20031;-77
2023/12/07 02:37:58;;;;;;;0.00;0.00;;;;;;;5.85;100.00;99875.50;4797139;29;20037;-76
2023/12/07 02:40:28;;;;;;;0.00;0.00;;;;;;;5.77;100.00;99855.84;4795787;29;20058;-78
2023/12/07 02:42:59;;;;;;;0.00;0.00;;;;;;;5.95;100.00;99883.78;4809253;29;20501;-77
2023/12/07 02:45:28;;;;;;;0.10;0.10;;;;;;;5.96;100.00;99874.59;4823643;29;20186;-76
2023/12/07 02:47:53;;;;;;;0.00;0.00;;;;;;;5.97;100.00;99870.81;4812830;29;20042;-75
2023/12/07 02:50:27;;;;;;;0.00;0.00;;;;;;;6.00;100.00;99870.34;4815795;29;20034;-76
2023/12/07 02:52:52;;;;;;;0.00;0.00;;;;;;;6.02;100.00;99856.53;4793729;29;20162;-76
2023/12/07 02:55:18;;;;;;;0.00;0.00;;;;;;;5.96;100.00;99844.75;4809769;29;20616;-75
2023/12/07 02:57:43;;;;;;;0.00;0.00;;;;;;;6.12;100.00;99862.09;4791808;29;20023;-77
2023/12/07 03:00:12;;;;;;;0.00;0.00;;;;;;;6.07;100.00;99840.28;4806132;29;20046;-77
2023/12/07 03:02:54;;;;;;;;;;;;;;;;;;;;;
2023/12/07 03:05:23;;;;;;;0.00;0.00;;;;;;;6.14;100.00;99837.41;4795216;29;20481;-77
2023/12/07 03:07:48;;;;;;;0.00;0.00;;;;;;;6.14;100.00;99831.97;4798357;29;20117;-77
2023/12/07 03:10:16;;;;;;;0.00;0.00;;;;;;;6.14;100.00;99827.34;4804056;29;20459;-76
2023/12/07 03:12:44;;;;;;;0.10;0.10;;;;;;;6.17;100.00;99815.19;4798558;29;20035;-77
2023/12/07 03:15:10;;;;;;;0.00;0.00;;;;;;;6.15;100.00;99804.56;4810770;29;20045;-77
2023/12/07 03:17:35;;;;;;;0.10;0.10;;;;;;;6.14;100.00;99800.22;4807103;29;20034;-76
2023/12/07 03:20:01;;;;;;;0.00;0.00;;;;;;;6.22;100.00;99807.09;4807973;29;20034;-78
2023/12/07 03:22:26;;;;;;;0.00;0.00;;;;;;;6.25;100.00;99814.72;4807272;29;20367;-78
2023/12/07 03:24:52;;;;;;;0.00;0.00;;;;;;;6.29;100.00;99821.31;4782370;29;20470;-77
2023/12/07 03:27:18;;;;;;;0.10;0.10;;;;;;;6.29;100.00;99813.16;4791412;29;20023;-77
2023/12/07 03:29:44;;;;;;;0.00;0.00;;;;;;;6.40;100.00;99820.38;4819603;29;20031;-77
2023/12/07 03:32:19;;;;;;;0.00;0.00;;;;;;;6.25;100.00;99779.44;4809887;29;20085;-76
2023/12/07 03:34:47;;;;;;;0.00;0.00;;;;;;;6.37;100.00;99812.72;4805105;29;20107;-77
2023/12/07 03:37:12;;;;;;;0.00;0.00;;;;;;;6.28;100.00;99792.53;4810338;29;20059;-76
2023/12/07 03:39:38;;;;;;;0.00;0.00;;;;;;;6.28;100.00;99803.38;4832618;29;20039;-77
2023/12/07 03:42:07;;;;;;;0.10;0.10;;;;;;;6.31;100.00;99778.44;4806364;29;20063;-77
2023/12/07 03:44:35;;;;;;;0.00;0.00;;;;;;;6.33;100.00;99789.84;4785215;29;20031;-76
2023/12/07 03:47:04;;;;;;;0.00;0.00;;;;;;;6.28;100.00;99757.22;4762604;29;20368;-76
2023/12/07 03:49:33;;;;;;;0.00;0.00;;;;;;;6.13;100.00;99729.88;4782509;29;20019;-75
2023/12/07 03:51:59;;;;;;;0.00;0.00;;;;;;;6.41;100.00;99775.00;4782490;29;20049;-77
2023/12/07 03:54:24;;;;;;;0.00;0.00;;;;;;;6.31;100.00;99754.00;4770530;29;20394;-77
2023/12/07 03:56:57;;;;;;;0.00;0.00;;;;;;;6.32;100.00;99735.81;4794436;29;20097;-75
2023/12/07 03:59:23;;;;;;;0.00;0.00;;;;;;;6.44;100.00;99759.03;4795380;29;20043;-75
2023/12/07 04:01:56;;;;;;;0.00;0.00;;;;;;;6.44;100.00;99756.31;4792394;29;20079;-76
2023/12/07 04:04:24;;;;;;;0.00;0.00;;;;;;;6.40;100.00;99738.88;4800731;29;20027;-75
2023/12/07 04:06:52;;;;;;;0.00;0.00;;;;;;;6.37;100.00;99736.69;4782578;29;20046;-77
2023/12/07 04:09:21;;;;;;;0.00;0.00;;;;;;;6.33;100.00;99730.13;4777524;29;20091;-76
2023/12/07 04:15:10;;;;;;;0.00;0.00;;;;;;;6.29;100.00;99720.84;4779280;29;20050;-75
2023/12/07 04:17:44;;;;;;;0.00;0.00;;;;;;;6.37;100.00;99749.44;4781886;29;20035;-77
2023/12/07 04:20:10;;;;;;;0.00;0.00;;;;;;;6.27;100.00;99725.72;4789218;29;20035;-78
2023/12/07 04:22:40;;;;;;;0.00;0.00;;;;;;;6.44;100.00;99750.88;4780727;29;20032;-79
2023/12/07 04:25:10;;;;;;;0.00;0.00;;;;;;;6.22;100.00;99725.63;4782166;29;20043;-78
2023/12/07 04:27:36;;;;;;;0.00;0.00;;;;;;;6.43;100.00;99754.66;4789498;29;20023;-78
2023/12/07 04:30:11;;;;;;;0.00;0.00;;;;;;;6.21;100.00;99713.97;4791370;29;20027;-80
2023/12/07 04:32:45;;;;;;;0.00;0.00;;;;;;;6.27;100.00;99720.28;4773069;29;20038;-78
2023/12/07 04:35:20;;;;;;;0.10;0.10;;;;;;;6.40;100.00;99740.78;4781542;29;20035;-79
2023/12/07 04:38:00;;;;;;;0.00;0.00;;;;;;;6.07;100.00;99675.53;4783892;29;20388;-78
2023/12/07 04:40:29;;;;;;;0.00;0.00;;;;;;;6.17;100.00;99684.88;4780052;29;20067;-79
2023/12/07 04:46:38;;;;;;;0.00;0.00;;;;;;;6.39;100.00;99710.06;4799360;29;20047;-78
2023/12/07 04:49:03;;;;;;;0.00;0.00;;;;;;;6.21;100.00;99675.16;4791359;29;20506;-78
2023/12/07 04:51:34;;;;;;;0.10;0.10;;;;;;;6.13;100.00;99641.09;4822524;29;20062;-79
2023/12/07 04:54:08;;;;;;;0.10;0.10;;;;;;;6.30;100.00;99679.03;4787093;29;20039;-79
2023/12/07 04:59:46;;;;;;;0.00;0.00;;;;;;;6.37;100.00;99706.00;4804719;29;20047;-80
2023/12/07 05:02:16;;;;;;;0.00;0.00;;;;;;;6.00;100.00;99641.50;4813653;29;20039;-79
2023/12/07 05:04:42;;;;;;;0.00;0.00;;;;;;;6.25;100.00;99692.53;4808255;29;20031;-79
2023/12/07 05:07:13;;;;;;;0.00;0.00;;;;;;;6.33;100.00;99699.44;4810087;29;20069;-79
2023/12/07 05:09:44;;;;;;;0.00;0.00;;;;;;;6.19;100.00;99672.69;4799149;29;20410;-79
2023/12/07 05:12:11;;;;;;;0.00;0.00;;;;;;;6.16;100.00;99662.31;4793769;29;20034;-79
2023/12/07 05:14:36;;;;;;;0.00;0.00;;;;;;;6.26;100.00;99672.47;4811186;29;20402;-79
2023/12/07 05:17:05;;;;;;;0.00;0.00;;;;;;;6.24;100.00;99680.06;4814457;29;20157;-78
2023/12/07 05:19:30;;;;;;;0.00;0.00;;;;;;;6.24;100.00;99663.78;4803824;29;20153;-80
2023/12/07 05:22:01;;;;;;;0.00;0.00;;;;;;;6.14;100.00;99656.34;4803600;29;20039;-79
2023/12/07 05:24:32;;;;;;;0.00;0.00;;;;;;;6.24;100.00;99652.91;4779849;29;20478;-80
2023/12/07 05:27:00;;;;;;;0.00;0.00;;;;;;;6.12;100.00;99674.78;4790174;29;20086;-79
2023/12/07 05:30:12;;;;;;;0.00;0.00;;;;;;;6.33;100.00;99673.09;4798912;29;20515;-81
2023/12/07 05:32:48;;;;;;;0.00;0.00;;;;;;;6.09;100.00;99650.88;4809637;29;20046;-78
2023/12/07 05:35:13;;;;;;;0.00;0.00;;;;;;;6.18;100.00;99664.81;4815170;29;20080;-79
2023/12/07 05:37:41;;;;;;;0.00;0.00;;;;;;;6.15;100.00;99657.13;4795533;29;20031;-80
2023/12/07 05:40:19;;;;;;;0.10;0.10;;;;;;;6.19;100.00;99671.84;4804502;29;20065;-79
2023/12/07 05:43:10;;;;;;;0.10;0.10;;;;;;;6.30;100.00;99679.03;4809575;29;20793;-78
2023/12/07 05:46:31;;;;;;;0.00;0.00;;;;;;;6.34;100.00;99680.16;4804269;29;20405;-76
2023/12/07 05:49:44;;;;;;;;;;;;;;;;;;;;;
2023/12/07 05:52:12;;;;;;;0.00;0.00;;;;;;;6.34;100.00;99671.19;4781547;29;20049;-79
2023/12/07 05:54:43;;;;;;;0.00;0.00;;;;;;;6.18;100.00;99637.66;4766478;29;20054;-81
2023/12/07 05:57:08;;;;;;;0.00;0.00;;;;;;;6.18;100.00;99629.50;4765235;30;20089;-76
2023/12/07 05:59:38;;;;;;;0.00;0.00;;;;;;;6.22;100.00;99645.03;4813041;29;20665;-78
2023/12/07 06:02:06;;;;;;;0.10;0.10;;;;;;;6.09;100.00;99629.97;4820742;29;20050;-79
2023/12/07 06:04:31;;;;;;;0.10;0.10;;;;;;;6.22;100.00;99644.19;4798571;29;20030;-77
2023/12/07 06:06:59;;;;;;;0.03;0.03;;;;;;;6.05;100.00;99620.69;4803798;29;20028;-77
2023/12/07 06:09:24;;;;;;;0.00;0.00;;;;;;;6.05;100.00;99623.41;4787326;29;20035;-79
2023/12/07 06:11:50;;;;;;;0.00;0.00;;;;;;;6.25;100.00;99643.66;4813679;29;20573;-76
2023/12/07 06:14:16;;;;;;;0.00;0.00;;;;;;;6.11;100.00;99616.94;4810189;29;20379;-78
2023/12/07 06:16:41;;;;;;;0.00;0.00;;;;;;;6.20;100.00;99635.50;4819566;29;20045;-78
2023/12/07 06:19:09;;;;;;;0.00;0.00;;;;;;;6.06;100.00;99597.91;4817821;29;20038;-77
2023/12/07 06:21:37;;;;;;;0.00;0.00;;;;;;;6.01;100.00;99581.56;4801969;29;20063;-78
2023/12/07 06:24:02;;;;;;;0.00;0.00;;;;;;;6.04;100.00;99594.59;4798094;29;20037;-80
2023/12/07 06:26:28;;;;;;;0.00;0.00;;;;;;;6.07;100.00;99613.09;4793632;29;20030;-78
2023/12/07 06:28:54;;;;;;;0.00;0.00;;;;;;;6.03;100.00;99587.56;4796653;29;20046;-76
2023/12/07 06:31:22;;;;;;;0.10;0.10;;;;;;;6.07;100.00;99610.38;4808767;29;20098;-77
2023/12/07 06:33:48;;;;;;;0.00;0.00;;;;;;;6.26;100.00;99607.31;4818759;29;20398;-79
2023/12/07 06:36:21;;;;;;;0.10;0.10;;;;;;;6.08;100.00;99573.22;4812788;29;20050;-80
2023/12/07 06:38:47;;;;;;;0.10;0.10;;;;;;;6.00;100.00;99579.94;4817526;29;20050;-80
2023/12/07 06:41:14;;;;;;;0.00;0.00;;;;;;;6.16;100.00;99588.22;4804617;29;20118;-81
2023/12/07 06:43:47;;;;;;;0.00;0.00;;;;;;;6.13;100.00;99575.16;4815399;29;20046;-81
2023/12/07 06:46:16;;;;;;;0.00;0.00;;;;;;;6.23;100.00;99607.81;4784071;29;20038;-81
2023/12/07 06:48:41;;;;;;;0.00;0.00;;;;;;;6.17;100.00;99598.00;4810627;29;20486;-80
2023/12/07 06:51:09;;;;;;;0.00;0.00;;;;;;;6.21;100.00;99599.13;4786144;29;20102;-79
2023/12/07 06:53:35;;;;;;;0.00;0.00;;;;;;;6.28;100.00;99613.31;4811132;29;20036;-79
2023/12/07 06:56:04;;;;;;;0.00;0.00;;;;;;;6.15;100.00;99572.97;4780112;29;20148;-79
2023/12/07 06:58:32;;;;;;;0.00;0.00;;;;;;;6.13;100.00;99567.81;4815654;29;20050;-79
2023/12/07 07:00:57;;;;;;;0.00;0.00;;;;;;;6.30;100.00;99594.84;4802456;29;20034;-81
2023/12/07 07:04:04;;;;;;;;;;;;;;;;;;;;;
2023/12/07 07:06:39;;;;;;;0.10;0.10;;;;;;;6.23;100.00;99559.75;4797668;29;20076;-80
2023/12/07 07:09:22;;;;;;;0.10;0.10;;;;;;;6.10;100.00;99533.03;4805067;29;20057;-80
2023/12/07 07:11:48;;;;;;;0.00;0.00;;;;;;;6.32;100.00;99589.97;4820593;29;20038;-77
2023/12/07 07:14:29;;;;;;;;;;;;;;;;;;;;;
2023/12/07 07:17:02;;;;;;;0.00;0.00;;;;;;;6.13;100.00;99548.00;4793349;29;20107;-78
2023/12/07 07:19:42;;;;;;;;;;;;;;;;;;;;;
2023/12/07 07:22:13;;;;;;;0.10;0.10;;;;;;;5.98;100.00;99530.50;4808106;29;20038;-79
2023/12/07 07:30:58;;;;;;;0.00;0.00;;;;;;;6.07;100.00;99545.22;4791042;29;20442;-79
2023/12/07 07:33:44;;;;;;;;;;;;;;;;;;;;;
2023/12/07 07:36:54;;;;;;;0.00;0.00;;;;;;;6.05;100.00;99524.88;4803864;29;20061;-82
2023/12/07 07:39:41;;;;;;;0.00;0.00;;;;;;;6.15;100.00;99526.84;4812544;29;20122;-79
2023/12/07 07:42:19;;;;;;;;;;;;;;;;;;;;;
2023/12/07 07:44:45;;;;;;;0.00;0.00;;;;;;;6.09;100.00;99548.53;4803642;29;20051;-82
2023/12/07 07:47:11;;;;;;;0.00;0.00;;;;;;;6.14;100.00;99558.59;4802210;29;20107;-83
2023/12/07 07:49:39;;;;;;;0.00;0.00;;;;;;;6.22;100.00;99551.88;4807358;29;20392;-78
2023/12/07 07:52:05;;;;;;;0.00;0.00;;;;;;;6.30;100.00;99554.13;4805565;29;20600;-77
2023/12/07 07:54:30;;;;;;;0.00;0.00;;;;;;;6.21;100.00;99533.97;4809570;29;20038;-82
2023/12/07 07:56:56;;;;;;;0.10;0.10;;;;;;;6.22;100.00;99541.00;4796136;29;20057;-77
2023/12/07 07:59:31;;;;;;;0.10;0.10;;;;;;;6.32;100.00;99556.59;4806530;29;20069;-76
2023/12/07 08:01:59;;;;;;;0.00;0.00;;;;;;;6.22;100.00;99527.44;4812749;29;20037;-76
2023/12/07 08:04:24;;;;;;;0.10;0.10;;;;;;;6.15;100.00;99532.25;4797857;29;20035;-79
2023/12/07 08:06:52;;;;;;;0.00;0.00;;;;;;;6.21;100.00;99552.97;4798108;29;20023;-78
2023/12/07 08:09:30;;;;;;;0.00;0.00;;;;;;;6.24;100.00;99528.03;4802908;29;20030;-78
2023/12/07 08:11:56;;;;;;;0.10;0.10;;;;;;;6.22;100.00;99531.00;4805491;29;20450;-83
2023/12/07 08:14:26;;;;;;;0.10;0.10;;;;;;;6.20;100.00;99511.41;4820830;29;20030;-78
2023/12/07 08:17:27;;;;;;;0.00;0.00;;;;;;;6.35;100.00;99540.59;4792582;29;20031;-79
2023/12/07 08:20:11;;;;;;;0.00;0.00;;;;;;;6.12;100.00;99495.63;4822673;29;20034;-78
2023/12/07 08:22:44;;;;;;;0.00;0.00;;;;;;;6.33;100.00;99541.94;4818721;29;20030;-76
2023/12/07 08:25:12;;;;;;;0.00;0.00;;;;;;;6.03;100.00;99505.28;4807212;29;20128;-78
2023/12/07 08:27:51;;;;;;;0.00;0.00;;;;;;;6.20;100.00;99524.19;4811772;29;20732;-77
2023/12/07 08:30:16;;;;;;;0.00;0.00;;;;;;;6.14;100.00;99495.34;4814491;29;20668;-78
2023/12/07 08:32:47;;;;;;;0.00;0.00;;;;;;;6.17;100.00;99519.28;4820476;29;20068;-78
2023/12/07 08:35:16;;;;;;;0.00;0.00;;;;;;;6.03;100.00;99475.44;4801994;29;20054;-78
2023/12/07 08:37:44;;;;;;;0.00;0.00;;;;;;;6.02;100.00;99485.50;4794912;29;20027;-78
2023/12/07 08:40:15;;;;;;;0.00;0.00;;;;;;;5.99;100.00;99483.28;4790062;29;20383;-77
2023/12/07 08:42:49;;;;;;;0.00;0.00;;;;;;;6.06;100.00;99485.78;4811414;29;20045;-78
2023/12/07 08:45:17;;;;;;;0.10;0.10;;;;;;;6.05;100.00;99471.41;4810656;29;20097;-79
2023/12/07 08:48:08;;;;;;;0.00;0.00;;;;;;;6.15;100.00;99481.53;4821390;29;20034;-78
2023/12/07 08:50:41;;;;;;;0.00;0.00;;;;;;;5.76;100.00;99425.53;4810201;29;20030;-78
2023/12/07 08:53:09;;;;;;;0.00;0.00;;;;;;;5.94;100.00;99445.22;4789429;29;20041;-78
2023/12/07 08:55:34;;;;;;;0.00;0.00;;;;;;;6.14;100.00;99473.66;4804816;29;20035;-78
2023/12/07 08:58:04;;;;;;;0.00;0.00;;;;;;;6.14;100.00;99468.22;4798434;29;20046;-77
2023/12/07 09:00:31;;;;;;;0.00;0.00;;;;;;;5.96;100.00;99445.78;4807550;29;20034;-78
2023/12/07 09:03:00;;;;;;;0.00;0.00;;;;;;;6.02;100.00;99466.50;4807310;29;20030;-78
2023/12/07 09:05:31;;;;;;;0.00;0.00;;;;;;;5.86;100.00;99421.28;4822227;29;20385;-79
2023/12/07 09:07:57;;;;;;;0.10;0.10;;;;;;;5.95;100.00;99463.16;4813979;29;20045;-77
2023/12/07 09:10:25;;;;;;;0.00;0.00;;;;;;;5.81;100.00;99413.94;4803057;29;20465;-78
2023/12/07 09:12:50;;;;;;;0.00;0.00;;;;;;;5.99;100.00;99439.06;4813217;29;20121;-77
2023/12/07 09:15:18;;;;;;;0.00;0.00;;;;;;;5.83;100.00;99416.38;4796513;29;20172;-78
2023/12/07 09:17:44;;;;;;;0.00;0.00;;;;;;;5.62;100.00;99389.06;4815911;29;20485;-80
2023/12/07 09:20:14;;;;;;;0.00;0.00;;;;;;;5.78;100.00;99444.28;4819592;29;20038;-79
2023/12/07 09:22:56;;;;;;;;;;;;;;;;;;;;;
2023/12/07 09:25:23;;;;;;;0.00;0.00;;;;;;;5.76;100.00;99451.88;4810120;29;20041;-78
2023/12/07 09:27:51;;;;;;;0.10;0.10;;;;;;;5.62;100.00;99418.09;4819960;29;20101;-78
2023/12/07 09:30:17;;;;;;;0.00;0.00;;;;;;;5.79;100.00;99442.41;4809754;29;20083;-78
2023/12/07 09:32:42;;;;;;;0.00;0.00;;;;;;;5.82;100.00;99434.53;4803775;29;20065;-78
2023/12/07 09:35:19;;;;;;;0.00;0.00;;;;;;;5.70;100.00;99423.88;4810940;29;20042;-79
2023/12/07 09:37:46;;;;;;;0.00;0.00;;;;;;;5.77;100.00;99429.91;4811087;29;20049;-78
2023/12/07 09:40:17;;;;;;;0.00;0.00;;;;;;;5.69;100.00;99416.00;4812729;29;20026;-78
2023/12/07 09:42:49;;;;;;;0.00;0.00;;;;;;;5.76;100.00;99417.41;4794663;29;20794;-78
2023/12/07 09:51:20;;;;;;;0.00;0.00;;;;;;;5.66;100.00;99376.63;5047691;23;20069;-78
2023/12/07 09:53:51;;;;;;;0.00;0.00;;;;;;;5.63;100.00;99347.31;4842364;29;20040;-77
2023/12/07 09:56:16;;;;;;;0.00;0.00;;;;;;;5.70;100.00;99350.63;4834857;29;20164;-78
2023/12/07 09:58:42;;;;;;;0.00;0.00;;;;;;;5.73;100.00;99330.31;4826715;29;20117;-79
2023/12/07 10:01:18;;;;;;;;;;;;;;;;;;;;;
2023/12/07 10:03:47;;;;;;;0.00;0.00;;;;;;;5.88;100.00;99360.25;4858923;29;20029;-79
2023/12/07 10:06:16;;;;;;;0.00;0.00;;;;;;;5.83;100.00;99367.56;4845551;29;20026;-79
2023/12/07 10:08:44;;;;;;;0.00;0.00;;;;;;;5.76;100.00;99349.56;4818495;29;20109;-78
2023/12/07 10:11:31;;;;;;;0.00;0.00;;;;;;;5.91;100.00;99367.03;4845530;29;20030;-78
2023/12/07 10:13:58;;;;;;;0.00;0.00;;;;;;;5.65;100.00;99347.91;4830162;29;20108;-79
2023/12/07 10:16:26;;;;;;;0.00;0.00;;;;;;;5.70;100.00;99377.75;4823211;29;20033;-80
2023/12/07 10:18:52;;;;;;;0.00;0.00;;;;;;;5.61;100.00;99363.03;4838033;29;20431;-79
2023/12/07 10:21:33;;;;;;;0.00;0.00;;;;;;;5.81;100.00;99394.94;4832763;29;20037;-80
2023/12/07 10:24:03;;;;;;;0.10;0.10;;;;;;;5.53;100.00;99328.25;4838336;29;20059;-78
2023/12/07 10:26:37;;;;;;;0.00;0.00;;;;;;;5.82;100.00;99358.56;4832259;29;20029;-77
2023/12/07 10:29:09;;;;;;;0.00;0.00;;;;;;;5.83;100.00;99359.41;4822472;29;20026;-78
2023/12/07 10:31:44;;;;;;;0.00;0.00;;;;;;;5.85;100.00;99347.19;4848071;29;20032;-78
2023/12/07 10:34:12;;;;;;;;;;;;;;;6.13;100.00;99374.28;4843857;29;20059;-79
2023/12/07 10:36:40;;;;;;;0.00;0.00;;;;;;;5.88;100.00;99335.00;4838879;29;19912;-78
2023/12/07 10:39:08;;;;;;;0.00;0.00;;;;;;;5.97;100.00;99344.31;4832258;29;20033;-79
2023/12/07 10:41:59;;;;;;;0.10;0.10;;;;;;;5.75;100.00;99326.25;4852856;29;20822;-78
2023/12/07 10:44:28;;;;;;;0.10;0.10;;;;;;;5.94;100.00;99350.25;4829572;29;20445;-83
2023/12/07 10:46:54;;;;;;;0.03;0.03;;;;;;;5.98;100.00;99351.38;4840805;29;20018;-81
2023/12/07 10:49:36;;;;;;;;;;;;;;;;;;;;;
2023/12/07 10:52:10;;;;;;;0.00;0.00;;;;;;;5.69;100.00;99319.16;4852903;29;20049;-83
2023/12/07 10:54:52;;;;;;;0.00;0.00;;;;;;;5.92;100.00;99341.56;4832667;29;21152;-83
2023/12/07 10:57:23;;;;;;;0.10;0.10;;;;;;;5.71;100.00;99308.88;4843248;29;20064;-82
2023/12/07 10:59:56;;;;;;;0.10;0.10;;;;;;;5.88;100.00;99310.59;4823462;29;20034;-81
2023/12/07 11:02:24;;;;;;;0.00;0.00;;;;;;;6.02;100.00;99325.38;4826161;29;20057;-82
2023/12/07 11:05:00;;;;;;;0.00;0.00;;;;;;;5.96;100.00;99293.81;4835389;29;20034;-83
2023/12/07 11:07:37;;;;;;;0.00;0.00;;;;;;;6.05;100.00;99300.41;4837878;29;20150;-81
2023/12/07 11:10:12;;;;;;;0.10;0.10;;;;;;;6.07;100.00;99290.09;4849419;29;20069;-82
2023/12/07 11:12:49;;;;;;;0.00;0.00;;;;;;;6.12;100.00;99297.47;4848006;29;20465;-81
2023/12/07 11:15:17;;;;;;;0.00;0.00;;;;;;;5.90;100.00;99252.28;4834911;29;20785;-82
2023/12/07 11:18:01;;;;;;;;;;;;;;;;;;;;;
2023/12/07 11:20:43;;;;;;;0.10;0.10;;;;;;;6.08;100.00;99270.03;4844874;29;20037;-84
2023/12/07 11:23:18;;;;;;;0.00;0.00;;;;;;;5.93;100.00;99231.94;4830915;29;20030;-85
2023/12/07 11:25:50;;;;;;;0.00;0.00;;;;;;;6.11;100.00;99238.81;4844535;29;20057;-84
2023/12/07 11:28:23;;;;;;;0.10;0.10;;;;;;;6.19;100.00;99242.91;4844893;29;20045;-83
2023/12/07 11:30:53;;;;;;;0.00;0.00;;;;;;;6.13;100.00;99231.22;4839571;29;20040;-83
2023/12/07 11:33:19;;;;;;;0.00;0.00;;;;;;;6.18;100.00;99220.41;4866543;29;20057;-83
2023/12/07 11:36:02;;;;;;;0.00;0.00;;;;;;;6.37;100.00;99264.16;4830317;29;20037;-84
2023/12/07 11:38:28;;;;;;;0.10;0.10;;;;;;;6.09;100.00;99211.94;4839248;29;20033;-84
2023/12/07 11:40:57;;;;;;;0.00;0.00;;;;;;;6.17;100.00;99207.09;4840328;29;20034;-85
2023/12/07 11:43:32;;;;;;;0.00;0.00;;;;;;;6.43;100.00;99232.41;4845970;29;20042;-83
2023/12/07 11:45:58;;;;;;;0.10;0.10;;;;;;;6.39;100.00;99226.69;4838567;29;20041;-84
2023/12/07 11:48:29;;;;;;;0.00;0.00;;;;;;;6.46;100.00;99226.44;4839605;29;20022;-86
2023/12/07 11:51:25;;;;;;;0.00;0.00;;;;;;;6.24;100.00;99181.31;4831510;29;20053;-83
2023/12/07 11:53:53;;;;;;;0.00;0.00;;;;;;;6.28;100.00;99182.41;4833388;29;20049;-85
2023/12/07 11:56:31;;;;;;;0.00;0.00;;;;;;;6.43;100.00;99208.78;4829384;29;20038;-84
2023/12/07 11:58:59;;;;;;;0.00;0.00;;;;;;;6.12;100.00;99134.63;4827759;29;20052;-84
2023/12/07 12:01:28;;;;;;;0.10;0.10;;;;;;;6.15;100.00;99161.22;4832890;29;20166;-82
2023/12/07 12:03:53;;;;;;;0.00;0.00;;;;;;;6.22;100.00;99166.38;4837370;29;20014;-85
2023/12/07 12:06:19;;;;;;;0.00;0.00;;;;;;;6.17;100.00;99152.81;4849134;29;20037;-84
2023/12/07 12:08:45;;;;;;;0.00;0.00;;;;;;;6.35;100.00;99193.03;4816297;29;20639;-83
2023/12/07 12:11:13;;;;;;;0.00;0.00;;;;;;;6.33;100.00;99162.59;4846339;29;20049;-83
2023/12/07 12:13:39;;;;;;;0.00;0.00;;;;;;;6.37;100.00;99162.91;4830319;29;20044;-83
2023/12/07 12:16:05;;;;;;;0.00;0.00;;;;;;;6.28;100.00;99135.47;4844420;29;20041;-84
2023/12/07 12:18:38;;;;;;;0.00;0.00;;;;;;;6.36;100.00;99134.09;4840516;29;20057;-85
2023/12/07 12:21:09;;;;;;;0.00;0.00;;;;;;;6.29;100.00;99123.50;4841178;29;20129;-84
2023/12/07 12:23:44;;;;;;;0.00;0.00;;;;;;;6.19;100.00;99090.91;4848927;29;20041;-83
2023/12/07 12:26:10;;;;;;;0.10;0.10;;;;;;;6.18;100.00;99100.16;4824610;29;20034;-85
2023/12/07 12:28:42;;;;;;;0.00;0.00;;;;;;;6.23;100.00;99097.44;4813424;29;20030;-83